Time;durP1;ratioP1;P1;durP2;ratioP2;P2;SDS_P1;SDS_P2;PMS_P1;PMS_P2;Temp;Humidity;BMP_temperature;BMP_pressure;BME280_temperature;BME280_humidity;BME280_pressure;Samples;Min_cycle;Max_cycle;Signal;HPM_P1;HPM_P2
2024/02/11 00:00:30;;;;;;;;;;;9.00;89.60;;;;;;4975945;28;19929;-64
2024/02/11 00:03:03;;;;;;;;;;;9.00;89.60;;;;;;4966654;28;19929;-63
2024/02/11 00:05:31;;;;;;;;;;;9.00;89.60;;;;;;4962867;28;19952;-62
2024/02/11 00:08:05;;;;;;;;;;;9.00;89.60;;;;;;4967195;28;19926;-63
2024/02/11 00:10:39;;;;;;;;;;;9.00;89.60;;;;;;4960410;28;19993;-62
2024/02/11 00:13:12;;;;;;;;;;;9.00;89.60;;;;;;4953486;28;19936;-59
2024/02/11 00:15:46;;;;;;;;;;;8.90;89.60;;;;;;4961514;28;19926;-59
2024/02/11 00:18:22;;;;;;;;;;;9.00;89.60;;;;;;4965270;28;19937;-59
2024/02/11 00:20:50;;;;;;;;;;;9.00;89.50;;;;;;4964073;28;20004;-59
2024/02/11 00:23:23;;;;;;;;;;;9.00;89.50;;;;;;4963909;28;19930;-60
2024/02/11 00:25:51;;;;;;;;;;;9.00;89.50;;;;;;4965297;28;19989;-60
2024/02/11 00:28:25;;;;;;;;;;;9.00;89.50;;;;;;4962436;28;19930;-58
2024/02/11 00:31:03;;;;;;;;;;;9.00;89.50;;;;;;4961946;28;19926;-58
2024/02/11 00:33:39;;;;;;;;;;;9.00;89.40;;;;;;4966384;28;19930;-61
2024/02/11 00:36:13;;;;;;;;;;;9.00;89.50;;;;;;4963974;28;19937;-60
2024/02/11 00:38:47;;;;;;;;;;;9.00;89.50;;;;;;4957222;28;19935;-60
2024/02/11 00:41:20;;;;;;;;;;;9.00;89.70;;;;;;4973811;28;19926;-58
2024/02/11 00:43:53;;;;;;;;;;;8.90;89.70;;;;;;4963344;28;20397;-59
2024/02/11 00:46:19;;;;;;;;;;;9.00;89.70;;;;;;4964897;28;19926;-61
2024/02/11 00:49:00;;;;;;;;;;;9.00;89.80;;;;;;4967322;28;20025;-61
2024/02/11 00:51:34;;;;;;;;;;;8.90;89.80;;;;;;4967685;28;19930;-60
2024/02/11 00:54:03;;;;;;;;;;;9.00;89.80;;;;;;4967326;28;19938;-60
2024/02/11 00:56:38;;;;;;;;;;;9.00;89.80;;;;;;4967806;28;19937;-59
2024/02/11 00:59:16;;;;;;;;;;;9.00;89.80;;;;;;4966762;28;19937;-60
2024/02/11 01:01:49;;;;;;;;;;;8.90;89.70;;;;;;4964497;28;19972;-60
2024/02/11 01:04:22;;;;;;;;;;;9.00;89.80;;;;;;4965814;28;19934;-59
2024/02/11 01:06:57;;;;;;;;;;;8.90;89.80;;;;;;4965797;28;19973;-60
2024/02/11 01:09:32;;;;;;;;;;;8.90;89.90;;;;;;4964450;28;19969;-60
2024/02/11 01:11:59;;;;;;;;;;;8.90;90.00;;;;;;4970094;28;19930;-60
2024/02/11 01:14:32;;;;;;;;;;;8.90;90.00;;;;;;4966683;28;20445;-59
2024/02/11 01:17:05;;;;;;;;;;;8.80;90.00;;;;;;4964314;28;19930;-60
2024/02/11 01:19:39;;;;;;;;;;;8.90;90.00;;;;;;4968180;28;20016;-59
2024/02/11 01:22:14;;;;;;;;;;;8.90;90.00;;;;;;4964543;28;20293;-60
2024/02/11 01:24:47;;;;;;;;;;;8.90;90.00;;;;;;4967996;28;20397;-66
2024/02/11 01:27:20;;;;;;;;;;;8.90;89.90;;;;;;4963143;28;19937;-66
2024/02/11 01:29:53;;;;;;;;;;;8.90;89.90;;;;;;4969190;28;19972;-66
2024/02/11 01:32:26;;;;;;;;;;;8.90;90.00;;;;;;4967196;28;19930;-67
2024/02/11 01:34:59;;;;;;;;;;;8.90;90.00;;;;;;4970225;28;19926;-67
2024/02/11 01:37:33;;;;;;;;;;;8.90;89.90;;;;;;4968874;28;19926;-66
2024/02/11 01:40:08;;;;;;;;;;;8.90;89.90;;;;;;4968927;28;20013;-64
2024/02/11 01:42:36;;;;;;;;;;;8.80;89.90;;;;;;4969487;28;19926;-66
2024/02/11 01:45:09;;;;;;;;;;;8.90;89.90;;;;;;4959633;28;19930;-65
2024/02/11 01:47:43;;;;;;;;;;;8.90;89.90;;;;;;4968120;28;20065;-65
2024/02/11 01:50:17;;;;;;;;;;;8.90;90.00;;;;;;4969755;28;19934;-65
2024/02/11 01:52:52;;;;;;;;;;;8.80;89.90;;;;;;4968126;28;19927;-67
2024/02/11 01:55:25;;;;;;;;;;;8.80;90.00;;;;;;4969231;28;19933;-65
2024/02/11 01:57:58;;;;;;;;;;;8.80;90.00;;;;;;4958033;28;19926;-67
2024/02/11 02:00:32;;;;;;;;;;;8.80;90.00;;;;;;4965544;28;19926;-66
2024/02/11 02:03:06;;;;;;;;;;;8.80;90.00;;;;;;4969139;28;19927;-66
2024/02/11 02:05:39;;;;;;;;;;;8.80;90.00;;;;;;4968958;28;19937;-66
2024/02/11 02:08:13;;;;;;;;;;;8.80;90.00;;;;;;4962827;28;19930;-66
2024/02/11 02:10:47;;;;;;;;;;;8.80;90.10;;;;;;4967806;28;19932;-65
2024/02/11 02:13:20;;;;;;;;;;;8.80;90.10;;;;;;4968711;28;19926;-66
2024/02/11 02:15:53;;;;;;;;;;;8.80;90.10;;;;;;4965974;28;19933;-67
2024/02/11 02:18:26;;;;;;;;;;;8.80;90.10;;;;;;4968634;28;19926;-67
2024/02/11 02:21:00;;;;;;;;;;;8.90;90.00;;;;;;4969116;28;19929;-67
2024/02/11 02:23:28;;;;;;;;;;;8.80;90.10;;;;;;4967688;28;20409;-65
2024/02/11 02:26:07;;;;;;;;;;;8.80;90.20;;;;;;4965978;28;19940;-67
2024/02/11 02:28:40;;;;;;;;;;;8.80;90.10;;;;;;4966852;28;19930;-65
2024/02/11 02:31:13;;;;;;;;;;;8.70;90.10;;;;;;4967660;28;20033;-66
2024/02/11 02:33:46;;;;;;;;;;;8.80;90.10;;;;;;4966882;28;19965;-59
2024/02/11 02:36:17;;;;;;;;;;;8.90;90.00;;;;;;4967350;28;20304;-59
2024/02/11 02:38:51;;;;;;;;;;;8.80;90.10;;;;;;4966420;28;19926;-58
2024/02/11 02:41:25;;;;;;;;;;;8.80;90.00;;;;;;4969039;28;20545;-59
2024/02/11 02:43:58;;;;;;;;;;;8.80;90.00;;;;;;4965832;28;19930;-59
2024/02/11 02:46:31;;;;;;;;;;;8.80;90.00;;;;;;4966743;28;20401;-58
2024/02/11 02:49:04;;;;;;;;;;;8.80;90.00;;;;;;4968008;28;19997;-59
2024/02/11 02:51:39;;;;;;;;;;;8.70;90.00;;;;;;4967378;28;20000;-59
2024/02/11 02:54:14;;;;;;;;;;;8.70;90.10;;;;;;4967364;28;19926;-59
2024/02/11 02:56:47;;;;;;;;;;;8.70;90.10;;;;;;4966377;28;19961;-60
2024/02/11 02:59:20;;;;;;;;;;;8.70;90.10;;;;;;4967036;28;19936;-59
2024/02/11 03:01:56;;;;;;;;;;;8.70;90.10;;;;;;4966191;28;19926;-60
2024/02/11 03:04:29;;;;;;;;;;;8.70;90.10;;;;;;4969218;28;19954;-59
2024/02/11 03:07:02;;;;;;;;;;;8.70;90.10;;;;;;4967357;28;19930;-58
2024/02/11 03:09:36;;;;;;;;;;;8.70;90.20;;;;;;4966938;28;19926;-59
2024/02/11 03:12:10;;;;;;;;;;;8.70;90.30;;;;;;4967679;28;19934;-58
2024/02/11 03:14:43;;;;;;;;;;;8.80;90.30;;;;;;4968240;28;19937;-58
2024/02/11 03:17:16;;;;;;;;;;;8.80;90.30;;;;;;4966119;28;19936;-58
2024/02/11 03:19:49;;;;;;;;;;;8.80;90.40;;;;;;4967829;28;21178;-59
2024/02/11 03:22:22;;;;;;;;;;;8.80;90.40;;;;;;4964909;28;20293;-60
2024/02/11 03:24:58;;;;;;;;;;;8.70;90.40;;;;;;4967591;28;20363;-58
2024/02/11 03:27:34;;;;;;;;;;;8.80;90.40;;;;;;4967446;28;19934;-60
2024/02/11 03:30:08;;;;;;;;;;;8.80;90.40;;;;;;4964440;28;20024;-59
2024/02/11 03:32:35;;;;;;;;;;;8.70;90.50;;;;;;4965527;28;19957;-59
2024/02/11 03:35:08;;;;;;;;;;;8.80;90.50;;;;;;4965929;28;19930;-59
2024/02/11 03:37:42;;;;;;;;;;;8.80;90.50;;;;;;4965707;28;19926;-59
2024/02/11 03:40:16;;;;;;;;;;;8.70;90.60;;;;;;4962346;28;19926;-59
2024/02/11 03:42:50;;;;;;;;;;;8.70;90.70;;;;;;4967455;28;20354;-59
2024/02/11 03:45:23;;;;;;;;;;;8.80;90.70;;;;;;4964284;28;19934;-59
2024/02/11 03:47:56;;;;;;;;;;;8.80;90.70;;;;;;4960282;28;20021;-59
2024/02/11 03:50:29;;;;;;;;;;;8.80;90.70;;;;;;4964124;28;19935;-60
2024/02/11 03:53:02;;;;;;;;;;;8.80;90.80;;;;;;4965788;28;20024;-59
2024/02/11 03:55:38;;;;;;;;;;;8.80;90.80;;;;;;4967079;28;19940;-59
2024/02/11 03:58:12;;;;;;;;;;;8.70;90.90;;;;;;4968682;28;19934;-59
2024/02/11 04:00:45;;;;;;;;;;;8.80;90.90;;;;;;4962036;28;19930;-58
2024/02/11 04:03:18;;;;;;;;;;;8.80;90.90;;;;;;4966662;28;19926;-59
2024/02/11 04:05:45;;;;;;;;;;;8.80;90.90;;;;;;4968073;28;19929;-59
2024/02/11 04:08:18;;;;;;;;;;;8.80;90.90;;;;;;4966645;28;19926;-58
2024/02/11 04:10:53;;;;;;;;;;;8.80;90.90;;;;;;4967973;28;20510;-62
2024/02/11 04:13:26;;;;;;;;;;;8.80;90.90;;;;;;4965935;28;20389;-59
2024/02/11 04:16:07;;;;;;;;;;;8.90;91.00;;;;;;4967642;28;19932;-59
2024/02/11 04:18:40;;;;;;;;;;;8.90;91.00;;;;;;4964615;28;19930;-59
2024/02/11 04:21:15;;;;;;;;;;;8.90;90.80;;;;;;4967933;28;19941;-59
2024/02/11 04:23:48;;;;;;;;;;;8.90;90.90;;;;;;4966697;28;20382;-59
2024/02/11 04:26:23;;;;;;;;;;;8.90;91.00;;;;;;4965657;28;19953;-59
2024/02/11 04:28:57;;;;;;;;;;;8.90;91.00;;;;;;4962517;28;20023;-59
2024/02/11 04:31:31;;;;;;;;;;;8.90;90.90;;;;;;4964825;28;19984;-59
2024/02/11 04:34:05;;;;;;;;;;;9.00;91.00;;;;;;4964899;28;20021;-59
2024/02/11 04:36:38;;;;;;;;;;;9.00;91.10;;;;;;4967495;28;19930;-59
2024/02/11 04:39:12;;;;;;;;;;;8.90;91.20;;;;;;4966471;28;19932;-59
2024/02/11 04:41:47;;;;;;;;;;;8.90;91.20;;;;;;4967381;28;19930;-59
2024/02/11 04:44:26;;;;;;;;;;;9.00;91.20;;;;;;4961785;28;20344;-60
2024/02/11 04:47:00;;;;;;;;;;;9.00;91.40;;;;;;4968950;28;19989;-59
2024/02/11 04:49:33;;;;;;;;;;;9.00;91.40;;;;;;4971056;28;19930;-58
2024/02/11 04:52:07;;;;;;;;;;;9.00;91.40;;;;;;4968303;28;20458;-59
2024/02/11 04:54:42;;;;;;;;;;;9.00;91.30;;;;;;4969353;28;19930;-64
2024/02/11 04:57:16;;;;;;;;;;;9.00;91.50;;;;;;4970243;28;19933;-65
2024/02/11 04:59:51;;;;;;;;;;;9.00;91.30;;;;;;4968033;28;19930;-66
2024/02/11 05:02:25;;;;;;;;;;;9.00;91.30;;;;;;4957862;28;20314;-66
2024/02/11 05:04:59;;;;;;;;;;;9.10;91.20;;;;;;4969801;28;20381;-65
2024/02/11 05:07:32;;;;;;;;;;;9.10;91.50;;;;;;4968472;28;20465;-66
2024/02/11 05:10:07;;;;;;;;;;;9.10;91.70;;;;;;4971050;28;19977;-67
2024/02/11 05:12:42;;;;;;;;;;;9.10;91.60;;;;;;4968534;28;19930;-67
2024/02/11 05:15:20;;;;;;;;;;;9.10;91.80;;;;;;4960776;28;20394;-64
2024/02/11 05:17:54;;;;;;;;;;;9.10;91.90;;;;;;4968909;28;19930;-66
2024/02/11 05:20:29;;;;;;;;;;;9.10;91.80;;;;;;4971697;28;19941;-66
2024/02/11 05:23:02;;;;;;;;;;;9.10;91.70;;;;;;4965476;28;20369;-65
2024/02/11 05:25:35;;;;;;;;;;;9.10;91.90;;;;;;4969353;28;20258;-65
2024/02/11 05:28:12;;;;;;;;;;;9.20;92.00;;;;;;4963561;28;19941;-67
2024/02/11 05:30:48;;;;;;;;;;;9.10;91.90;;;;;;4964304;28;19930;-66
2024/02/11 05:33:22;;;;;;;;;;;9.10;91.80;;;;;;4966296;28;19930;-66
2024/02/11 05:35:55;;;;;;;;;;;9.10;91.60;;;;;;4966777;28;20047;-68
2024/02/11 05:38:31;;;;;;;;;;;9.10;91.60;;;;;;4966551;28;19930;-65
2024/02/11 05:41:04;;;;;;;;;;;9.10;91.50;;;;;;4967744;28;19926;-66
2024/02/11 05:43:38;;;;;;;;;;;9.00;91.50;;;;;;4966742;28;19930;-66
2024/02/11 05:46:12;;;;;;;;;;;9.10;91.50;;;;;;4964077;28;19972;-67
2024/02/11 05:48:45;;;;;;;;;;;9.00;91.50;;;;;;4972159;28;19930;-66
2024/02/11 05:51:18;;;;;;;;;;;9.00;91.40;;;;;;4970030;28;19930;-66
2024/02/11 05:53:51;;;;;;;;;;;9.00;91.40;;;;;;4966776;28;19933;-65
2024/02/11 05:56:31;;;;;;;;;;;9.00;91.20;;;;;;4969019;28;19933;-66
2024/02/11 05:59:05;;;;;;;;;;;8.90;91.00;;;;;;4963084;28;20040;-66
2024/02/11 06:01:39;;;;;;;;;;;8.90;91.00;;;;;;4965694;28;20451;-65
2024/02/11 06:04:12;;;;;;;;;;;8.90;90.90;;;;;;4967627;28;20388;-59
2024/02/11 06:06:46;;;;;;;;;;;8.90;90.80;;;;;;4971294;28;19930;-60
2024/02/11 06:09:21;;;;;;;;;;;8.80;90.70;;;;;;4965183;28;20004;-58
2024/02/11 06:12:01;;;;;;;;;;;8.80;90.70;;;;;;4968913;28;20025;-60
2024/02/11 06:14:37;;;;;;;;;;;8.80;90.60;;;;;;4965336;28;20341;-59
2024/02/11 06:17:12;;;;;;;;;;;8.70;90.60;;;;;;4963251;28;19934;-60
2024/02/11 06:19:45;;;;;;;;;;;8.80;90.50;;;;;;4969612;28;19992;-59
2024/02/11 06:22:18;;;;;;;;;;;8.70;90.50;;;;;;4968702;28;19985;-59
2024/02/11 06:24:52;;;;;;;;;;;8.70;90.40;;;;;;4968196;28;19927;-59
2024/02/11 06:27:25;;;;;;;;;;;8.70;90.40;;;;;;4968391;28;19937;-59
2024/02/11 06:29:59;;;;;;;;;;;8.70;90.40;;;;;;4967782;28;19969;-60
2024/02/11 06:32:33;;;;;;;;;;;8.70;90.40;;;;;;4967669;28;20029;-61
2024/02/11 06:35:09;;;;;;;;;;;8.70;90.30;;;;;;4968916;28;19926;-59
2024/02/11 06:37:42;;;;;;;;;;;8.70;90.40;;;;;;4969528;28;19940;-60
2024/02/11 06:40:17;;;;;;;;;;;8.60;90.30;;;;;;4967792;28;19942;-60
2024/02/11 06:42:59;;;;;;;;;;;8.60;90.20;;;;;;4965454;28;19930;-59
2024/02/11 06:45:33;;;;;;;;;;;8.60;90.30;;;;;;4966193;28;19937;-59
2024/02/11 06:48:14;;;;;;;;;;;8.60;90.30;;;;;;4968135;28;21249;-59
2024/02/11 06:50:47;;;;;;;;;;;8.60;90.20;;;;;;4965944;28;20543;-60
2024/02/11 06:53:20;;;;;;;;;;;8.70;90.20;;;;;;4961901;28;20316;-59
2024/02/11 06:55:53;;;;;;;;;;;8.70;90.20;;;;;;4965481;28;19934;-59
2024/02/11 06:58:33;;;;;;;;;;;8.70;90.20;;;;;;4964766;28;19930;-60
2024/02/11 07:01:13;;;;;;;;;;;8.60;90.20;;;;;;4966047;28;19933;-59
2024/02/11 07:03:51;;;;;;;;;;;8.60;90.20;;;;;;4966716;28;20478;-59
2024/02/11 07:06:24;;;;;;;;;;;8.60;90.30;;;;;;4966220;28;19988;-60
2024/02/11 07:08:57;;;;;;;;;;;8.50;90.30;;;;;;4967761;28;20389;-59
2024/02/11 07:11:30;;;;;;;;;;;8.60;90.30;;;;;;4968833;28;19926;-60
2024/02/11 07:14:04;;;;;;;;;;;8.60;90.20;;;;;;4963149;28;19988;-62
2024/02/11 07:16:32;;;;;;;;;;;8.60;90.20;;;;;;4962670;28;19926;-61
2024/02/11 07:19:07;;;;;;;;;;;8.60;90.20;;;;;;4965209;28;19927;-62
2024/02/11 07:21:41;;;;;;;;;;;8.60;90.20;;;;;;4966071;28;19937;-61
2024/02/11 07:24:14;;;;;;;;;;;8.50;90.20;;;;;;4967287;28;19930;-63
2024/02/11 07:26:48;;;;;;;;;;;8.60;90.20;;;;;;4965546;28;19934;-62
2024/02/11 07:29:21;;;;;;;;;;;8.50;90.20;;;;;;4963385;28;19930;-62
2024/02/11 07:31:58;;;;;;;;;;;8.60;90.20;;;;;;4961880;28;19930;-62
2024/02/11 07:34:31;;;;;;;;;;;8.50;90.20;;;;;;4962652;28;19926;-63
2024/02/11 07:37:04;;;;;;;;;;;8.60;90.20;;;;;;4964037;28;20075;-61
2024/02/11 07:39:38;;;;;;;;;;;8.50;90.10;;;;;;4967225;28;19926;-62
2024/02/11 07:42:11;;;;;;;;;;;8.60;90.10;;;;;;4964923;28;20456;-63
2024/02/11 07:44:44;;;;;;;;;;;8.60;90.10;;;;;;4964057;28;20386;-62
2024/02/11 07:47:14;;;;;;;;;;;8.60;90.20;;;;;;4958014;28;19989;-61
2024/02/11 07:50:02;;;;;;;;;;;8.60;90.10;;;;;;4967723;28;21332;-62
2024/02/11 07:56:17;;;;;;;;;;;8.60;90.00;;;;;;4968250;28;19981;-63
2024/02/11 07:58:51;;;;;;;;;;;8.50;90.10;;;;;;4955798;28;19937;-62
2024/02/11 08:01:24;;;;;;;;;;;8.50;90.10;;;;;;4964763;28;19989;-63
2024/02/11 08:04:18;;;;;;;;;;;8.60;90.10;;;;;;4964896;28;19930;-62
2024/02/11 08:06:51;;;;;;;;;;;8.60;90.00;;;;;;4962336;28;20357;-64
2024/02/11 08:09:24;;;;;;;;;;;8.60;90.00;;;;;;4964481;28;20270;-62
2024/02/11 08:11:58;;;;;;;;;;;8.50;89.90;;;;;;4964477;28;20040;-61
2024/02/11 08:14:35;;;;;;;;;;;8.60;89.90;;;;;;4962638;28;20492;-61
2024/02/11 08:17:08;;;;;;;;;;;8.60;89.90;;;;;;4966052;28;19962;-62
2024/02/11 08:19:42;;;;;;;;;;;8.60;89.80;;;;;;4963017;28;19926;-61
2024/02/11 08:22:18;;;;;;;;;;;8.50;89.90;;;;;;4963851;28;19945;-63
2024/02/11 08:24:51;;;;;;;;;;;8.50;89.90;;;;;;4966751;28;19945;-63
2024/02/11 08:27:24;;;;;;;;;;;8.60;89.90;;;;;;4962499;28;19934;-61
2024/02/11 08:29:57;;;;;;;;;;;8.50;89.80;;;;;;4963753;28;19930;-62
2024/02/11 08:32:30;;;;;;;;;;;8.50;89.90;;;;;;4962046;28;19930;-62
2024/02/11 08:35:05;;;;;;;;;;;8.50;90.00;;;;;;4964673;28;20068;-63
2024/02/11 08:37:38;;;;;;;;;;;8.50;89.80;;;;;;4960489;28;20476;-61
2024/02/11 08:40:12;;;;;;;;;;;8.50;89.90;;;;;;4961057;28;20386;-63
2024/02/11 08:42:45;;;;;;;;;;;8.50;89.80;;;;;;4968729;28;20392;-61
2024/02/11 08:45:18;;;;;;;;;;;8.60;89.90;;;;;;4962012;28;19930;-61
2024/02/11 08:47:51;;;;;;;;;;;8.60;89.90;;;;;;4963772;28;19934;-61
2024/02/11 08:50:26;;;;;;;;;;;8.60;89.80;;;;;;4966041;28;19953;-61
2024/02/11 08:53:19;;;;;;;;;;;8.60;89.80;;;;;;4962300;28;20352;-63
2024/02/11 08:56:18;;;;;;;;;;;8.60;89.80;;;;;;4958783;28;19941;-61
2024/02/11 08:58:53;;;;;;;;;;;8.60;89.80;;;;;;4954781;28;20056;-62
2024/02/11 09:01:26;;;;;;;;;;;8.50;89.80;;;;;;4964942;28;19944;-62
2024/02/11 09:04:00;;;;;;;;;;;8.60;89.90;;;;;;4967264;28;19934;-63
2024/02/11 09:06:34;;;;;;;;;;;8.50;89.90;;;;;;4963511;28;19961;-62
2024/02/11 09:09:10;;;;;;;;;;;8.50;89.90;;;;;;4959690;28;20024;-61
2024/02/11 09:11:43;;;;;;;;;;;8.60;90.00;;;;;;4964933;28;20017;-61
2024/02/11 09:14:17;;;;;;;;;;;8.60;89.90;;;;;;4977296;28;20060;-61
2024/02/11 09:16:50;;;;;;;;;;;8.60;89.90;;;;;;4965648;28;20393;-61
2024/02/11 09:19:17;;;;;;;;;;;8.60;89.80;;;;;;4967015;28;19948;-61
2024/02/11 09:21:51;;;;;;;;;;;8.60;89.80;;;;;;4964740;28;19930;-62
2024/02/11 09:24:25;;;;;;;;;;;8.70;89.80;;;;;;4967460;28;19945;-61
2024/02/11 09:26:58;;;;;;;;;;;8.70;89.80;;;;;;4965395;28;19960;-62
2024/02/11 09:29:33;;;;;;;;;;;8.70;89.80;;;;;;4964928;28;20069;-62
2024/02/11 09:32:08;;;;;;;;;;;8.80;89.70;;;;;;4967255;28;19934;-61
2024/02/11 09:34:41;;;;;;;;;;;8.80;89.80;;;;;;4969529;28;20021;-61
2024/02/11 09:37:16;;;;;;;;;;;8.80;89.80;;;;;;4969817;28;19945;-60
2024/02/11 09:39:50;;;;;;;;;;;8.80;89.80;;;;;;4969186;28;20464;-60
2024/02/11 09:42:20;;;;;;;;;;;8.90;89.80;;;;;;4970758;28;20025;-60
2024/02/11 09:44:54;;;;;;;;;;;8.90;89.80;;;;;;4966947;28;19981;-61
2024/02/11 09:47:27;;;;;;;;;;;8.90;89.70;;;;;;4967714;28;20008;-61
2024/02/11 09:50:04;;;;;;;;;;;8.80;89.80;;;;;;4967151;28;20419;-60
2024/02/11 09:52:38;;;;;;;;;;;8.80;89.70;;;;;;4969801;28;19930;-61
2024/02/11 09:55:13;;;;;;;;;;;8.90;89.70;;;;;;4970444;28;19992;-61
2024/02/11 09:57:46;;;;;;;;;;;8.90;89.70;;;;;;4969475;28;19930;-59
2024/02/11 10:00:20;;;;;;;;;;;8.90;89.70;;;;;;4968888;28;19926;-59
2024/02/11 10:02:54;;;;;;;;;;;8.90;89.70;;;;;;4967917;28;20385;-62
2024/02/11 10:05:27;;;;;;;;;;;8.90;89.80;;;;;;4970347;28;20849;-61
2024/02/11 10:07:55;;;;;;;;;;;8.90;89.70;;;;;;4969446;28;19930;-61
2024/02/11 10:10:29;;;;;;;;;;;8.90;89.80;;;;;;4971900;28;19941;-61
2024/02/11 10:13:03;;;;;;;;;;;8.90;89.70;;;;;;4970710;28;19961;-61
2024/02/11 10:15:38;;;;;;;;;;;8.90;89.70;;;;;;4969711;28;19992;-61
2024/02/11 10:18:11;;;;;;;;;;;8.90;89.80;;;;;;4970054;28;19938;-61
2024/02/11 10:20:46;;;;;;;;;;;8.90;89.70;;;;;;4971958;28;20448;-61
2024/02/11 10:23:24;;;;;;;;;;;9.00;89.80;;;;;;4966454;28;19926;-60
2024/02/11 10:25:57;;;;;;;;;;;9.00;89.80;;;;;;4970402;28;19926;-61
2024/02/11 10:28:36;;;;;;;;;;;9.00;89.90;;;;;;4968444;28;19930;-61
2024/02/11 10:31:10;;;;;;;;;;;9.00;89.90;;;;;;4967293;28;19930;-60
2024/02/11 10:33:44;;;;;;;;;;;9.00;89.90;;;;;;4970291;28;20044;-61
2024/02/11 10:36:18;;;;;;;;;;;9.00;89.80;;;;;;4968488;28;19933;-61
2024/02/11 10:38:54;;;;;;;;;;;9.00;89.80;;;;;;4967223;28;19930;-60
2024/02/11 10:41:28;;;;;;;;;;;9.10;89.70;;;;;;4968052;28;19933;-59
2024/02/11 10:44:01;;;;;;;;;;;9.10;89.80;;;;;;4965646;28;19996;-60
2024/02/11 10:46:34;;;;;;;;;;;9.10;89.80;;;;;;4966875;28;20030;-62
2024/02/11 10:49:07;;;;;;;;;;;9.20;89.70;;;;;;4966062;28;20412;-60
2024/02/11 10:51:44;;;;;;;;;;;9.10;89.70;;;;;;4967307;28;20377;-62
2024/02/11 10:54:25;;;;;;;;;;;9.20;89.60;;;;;;4966362;28;19934;-60
2024/02/11 10:57:05;;;;;;;;;;;9.20;89.50;;;;;;4968710;28;19981;-60
2024/02/11 10:59:41;;;;;;;;;;;9.20;89.50;;;;;;4968578;28;21103;-61
2024/02/11 11:02:15;;;;;;;;;;;9.30;89.40;;;;;;4967656;28;19930;-60
2024/02/11 11:04:49;;;;;;;;;;;9.30;89.50;;;;;;4968371;28;21438;-60
2024/02/11 11:07:31;;;;;;;;;;;9.40;89.40;;;;;;4963055;28;19953;-60
2024/02/11 11:10:10;;;;;;;;;;;9.40;89.40;;;;;;4963862;28;19934;-62
2024/02/11 11:12:47;;;;;;;;;;;9.40;89.20;;;;;;4968169;28;19934;-60
2024/02/11 11:15:24;;;;;;;;;;;9.40;89.20;;;;;;4971173;28;19934;-61
2024/02/11 11:17:59;;;;;;;;;;;9.50;89.30;;;;;;4985086;28;20016;-61
2024/02/11 11:20:33;;;;;;;;;;;9.50;89.10;;;;;;4984019;28;20309;-62
2024/02/11 11:23:07;;;;;;;;;;;9.50;89.00;;;;;;4969826;28;19937;-60
2024/02/11 11:25:42;;;;;;;;;;;9.50;89.10;;;;;;4970628;28;19939;-60
2024/02/11 11:28:18;;;;;;;;;;;9.50;89.10;;;;;;4969667;28;19930;-60
2024/02/11 11:30:51;;;;;;;;;;;9.50;89.00;;;;;;4966935;28;19989;-62
2024/02/11 11:33:28;;;;;;;;;;;9.60;89.00;;;;;;4962387;28;20029;-60
2024/02/11 11:36:02;;;;;;;;;;;9.60;88.80;;;;;;4960655;28;19941;-60
2024/02/11 11:42:14;;;;;;;;;;;9.70;88.70;;;;;;4964423;28;19925;-61
2024/02/11 11:44:48;;;;;;;;;;;9.70;88.40;;;;;;4964671;28;20408;-62
2024/02/11 11:47:23;;;;;;;;;;;9.80;88.40;;;;;;4964461;28;19981;-61
2024/02/11 11:49:56;;;;;;;;;;;9.70;88.40;;;;;;4964798;28;19934;-62
2024/02/11 11:52:30;;;;;;;;;;;9.70;88.30;;;;;;4961929;28;19926;-61
2024/02/11 11:55:04;;;;;;;;;;;9.70;88.40;;;;;;4962841;28;19927;-68
2024/02/11 11:57:39;;;;;;;;;;;9.70;88.40;;;;;;4960251;28;20077;-68
2024/02/11 12:00:12;;;;;;;;;;;9.70;88.30;;;;;;4963913;28;19941;-68
2024/02/11 12:02:45;;;;;;;;;;;9.80;88.10;;;;;;4961196;28;19926;-68
2024/02/11 12:05:18;;;;;;;;;;;9.80;88.10;;;;;;4969511;28;20020;-67
2024/02/11 12:07:51;;;;;;;;;;;9.90;88.00;;;;;;4974153;28;19926;-68
2024/02/11 12:10:24;;;;;;;;;;;9.80;87.80;;;;;;4970290;28;19934;-67
2024/02/11 12:13:06;;;;;;;;;;;9.90;87.80;;;;;;4963457;28;20380;-67
2024/02/11 12:15:39;;;;;;;;;;;9.90;87.70;;;;;;4970838;28;20263;-67
2024/02/11 12:21:48;;;;;;;;;;;9.90;87.70;;;;;;4966385;28;20049;-68
2024/02/11 12:24:22;;;;;;;;;;;9.90;87.80;;;;;;4968039;28;19926;-67
2024/02/11 12:26:57;;;;;;;;;;;9.90;87.70;;;;;;4967672;28;19934;-68
2024/02/11 12:29:32;;;;;;;;;;;9.80;87.90;;;;;;4967693;28;19932;-69
2024/02/11 12:32:06;;;;;;;;;;;9.80;87.80;;;;;;4967266;28;19941;-68
2024/02/11 12:34:39;;;;;;;;;;;9.80;88.00;;;;;;4970821;28;19965;-68
2024/02/11 12:37:14;;;;;;;;;;;9.90;88.00;;;;;;4970451;28;19926;-68
2024/02/11 12:39:48;;;;;;;;;;;9.90;88.00;;;;;;4968836;28;19930;-68
2024/02/11 12:42:22;;;;;;;;;;;9.80;87.90;;;;;;4968776;28;20002;-68
2024/02/11 12:44:57;;;;;;;;;;;9.90;88.00;;;;;;4965353;28;19993;-69
2024/02/11 12:47:30;;;;;;;;;;;9.90;88.00;;;;;;4965496;28;20430;-67
2024/02/11 12:50:13;;;;;;;;;;;9.90;88.00;;;;;;4954445;28;19941;-67
2024/02/11 12:52:46;;;;;;;;;;;9.90;87.90;;;;;;4960196;28;20025;-66
2024/02/11 12:55:20;;;;;;;;;;;9.90;87.90;;;;;;4966445;28;19930;-67
2024/02/11 12:57:53;;;;;;;;;;;10.00;87.90;;;;;;4965364;28;19934;-67
2024/02/11 13:00:35;;;;;;;;;;;10.00;87.80;;;;;;4966083;28;20549;-67
2024/02/11 13:03:09;;;;;;;;;;;10.00;87.70;;;;;;4969501;28;20316;-59
2024/02/11 13:05:42;;;;;;;;;;;10.10;87.70;;;;;;4968667;28;20384;-60
2024/02/11 13:08:16;;;;;;;;;;;10.10;87.60;;;;;;4974634;28;19930;-59
2024/02/11 13:10:49;;;;;;;;;;;10.20;87.60;;;;;;4973035;28;20359;-60
2024/02/11 13:13:22;;;;;;;;;;;10.20;87.50;;;;;;4974711;28;19937;-60
2024/02/11 13:15:57;;;;;;;;;;;10.20;87.50;;;;;;4970212;28;19933;-61
2024/02/11 13:18:30;;;;;;;;;;;10.20;87.20;;;;;;4972929;28;19937;-60
2024/02/11 13:21:04;;;;;;;;;;;10.20;87.10;;;;;;4972205;28;20099;-58
2024/02/11 13:23:38;;;;;;;;;;;10.20;87.10;;;;;;4973262;28;19992;-59
2024/02/11 13:26:12;;;;;;;;;;;10.30;87.10;;;;;;4975700;28;19926;-60
2024/02/11 13:28:46;;;;;;;;;;;10.30;86.90;;;;;;4966893;28;19926;-60
2024/02/11 13:31:22;;;;;;;;;;;10.40;86.80;;;;;;4974304;28;19926;-60
2024/02/11 13:33:57;;;;;;;;;;;10.30;86.70;;;;;;4973686;28;19932;-60
2024/02/11 13:36:37;;;;;;;;;;;10.30;86.60;;;;;;4970184;28;20378;-61
2024/02/11 13:39:13;;;;;;;;;;;10.30;86.60;;;;;;4969148;28;19932;-59
2024/02/11 13:41:46;;;;;;;;;;;10.30;86.60;;;;;;4975273;28;19954;-60
2024/02/11 13:44:20;;;;;;;;;;;10.30;86.60;;;;;;4980554;28;19925;-60
2024/02/11 13:46:55;;;;;;;;;;;10.30;86.50;;;;;;4958211;28;19926;-60
2024/02/11 13:49:28;;;;;;;;;;;10.30;86.70;;;;;;4965312;28;19937;-59
2024/02/11 13:52:01;;;;;;;;;;;10.30;86.70;;;;;;4970582;28;19954;-60
2024/02/11 13:54:34;;;;;;;;;;;10.30;86.90;;;;;;4968729;28;19927;-59
2024/02/11 13:57:08;;;;;;;;;;;10.30;86.90;;;;;;4973705;28;20374;-60
2024/02/11 13:59:41;;;;;;;;;;;10.30;86.90;;;;;;4970531;28;20016;-60
2024/02/11 14:02:16;;;;;;;;;;;10.30;86.80;;;;;;4974478;28;19926;-59
2024/02/11 14:04:49;;;;;;;;;;;10.20;86.80;;;;;;4973454;28;19936;-60
2024/02/11 14:07:23;;;;;;;;;;;10.20;86.70;;;;;;4974448;28;19926;-59
2024/02/11 14:09:56;;;;;;;;;;;10.20;86.70;;;;;;4971043;28;20012;-60
2024/02/11 14:12:29;;;;;;;;;;;10.20;86.70;;;;;;4968963;28;20366;-59
2024/02/11 14:15:04;;;;;;;;;;;10.20;86.70;;;;;;4971848;28;19942;-62
2024/02/11 14:17:33;;;;;;;;;;;10.20;86.70;;;;;;4971515;28;20029;-64
2024/02/11 14:20:10;;;;;;;;;;;10.10;86.70;;;;;;4964309;28;19926;-63
2024/02/11 14:22:44;;;;;;;;;;;10.10;86.70;;;;;;4968061;28;19965;-63
2024/02/11 14:25:18;;;;;;;;;;;10.10;86.90;;;;;;4969994;28;19962;-64
2024/02/11 14:27:53;;;;;;;;;;;10.10;86.80;;;;;;4973380;28;19926;-64
2024/02/11 14:30:27;;;;;;;;;;;10.10;86.80;;;;;;4966641;28;19934;-62
2024/02/11 14:33:03;;;;;;;;;;;10.10;87.00;;;;;;4970203;28;19970;-62
2024/02/11 14:35:39;;;;;;;;;;;10.20;86.80;;;;;;4969328;28;19926;-64
2024/02/11 14:38:12;;;;;;;;;;;10.10;86.70;;;;;;4967216;28;20350;-63
2024/02/11 14:40:45;;;;;;;;;;;10.10;87.00;;;;;;4968110;28;19985;-63
2024/02/11 14:43:12;;;;;;;;;;;10.10;86.90;;;;;;4969695;28;19949;-63
2024/02/11 14:45:46;;;;;;;;;;;10.10;87.00;;;;;;4964674;28;19926;-63
2024/02/11 14:48:21;;;;;;;;;;;10.10;86.70;;;;;;4970296;28;19930;-64
2024/02/11 14:50:55;;;;;;;;;;;10.10;86.60;;;;;;4972713;28;19926;-64
2024/02/11 14:53:28;;;;;;;;;;;10.10;86.50;;;;;;4969608;28;19969;-64
2024/02/11 14:56:01;;;;;;;;;;;10.10;86.40;;;;;;4967468;28;19926;-63
2024/02/11 14:58:34;;;;;;;;;;;10.10;86.20;;;;;;4969149;28;19926;-64
2024/02/11 15:01:02;;;;;;;;;;;10.10;86.20;;;;;;4967083;28;19926;-63
2024/02/11 15:03:39;;;;;;;;;;;10.10;85.90;;;;;;4968389;28;19988;-62
2024/02/11 15:06:12;;;;;;;;;;;10.10;86.10;;;;;;4970039;28;19937;-63
2024/02/11 15:08:45;;;;;;;;;;;10.10;86.30;;;;;;4972636;28;19933;-63
2024/02/11 15:11:19;;;;;;;;;;;10.00;86.40;;;;;;4972195;28;19926;-64
2024/02/11 15:13:53;;;;;;;;;;;10.00;86.60;;;;;;4970029;28;19930;-63
2024/02/11 15:16:26;;;;;;;;;;;10.00;86.60;;;;;;4967514;28;19926;-62
2024/02/11 15:19:01;;;;;;;;;;;9.90;86.70;;;;;;4970258;28;19933;-63